Charlottesville Albemarle Airport Charlottesville US
ICAO: KCHO
IATA: CHO
Category: Medium
Scheduled Services: Yes

Elevation: 639 ft
TransAlt. 18000 ft.

Airport Communications:
POTOMAC APP/DEP:132.85
ASOS:118.425
ATIS:118.425
CTAF:124.5
GND:121.9
LEESBURG RDO:122.2
TWR:124.5
UNICOM:122.95

KCHO Zoom In..

Runways:

(A) RW 03 length 6801 ft width 150 ft
ILS 111.70 / hdg 30

(B) RW 21 length 6801 ft width 150 ft
---- / hdg 210

Location; KCHO
Day. 19 / Time. 20.53 Zulu
* Altimeter: 30.07
* Temperature: 30° c. 86°f.
* Wind from: 000° Speed 00 kn.
Dewpoint: 16° c.
Visibility: 10 Statute Miles.
Clouds: Scattered 5500 ft.

KCHO 192053Z 00000KT 10SM SCT055 30/16 A3007 RMK AO2 SLP174 T03000156 58011


Wind - Calm.

 
 
jpsmedia.com for Web Design worldairports.se 2018   terms of use